sensor_id;sensor_type;location;lat;lon;timestamp;pressure;altitude;pressure_sealevel;temperature;humidity
34103;BME280;20381;54.498;18.206;2023-05-11T00:01:16;100101.77;;;9.52;40.31
34103;BME280;20381;54.498;18.206;2023-05-11T00:03:47;100099.36;;;9.46;40.33
34103;BME280;20381;54.498;18.206;2023-05-11T00:06:11;100103.38;;;9.43;40.62
34103;BME280;20381;54.498;18.206;2023-05-11T00:08:37;100111.31;;;9.40;40.64
34103;BME280;20381;54.498;18.206;2023-05-11T00:11:08;100106.68;;;9.36;40.61
34103;BME280;20381;54.498;18.206;2023-05-11T00:13:34;100109.86;;;9.33;40.70
34103;BME280;20381;54.498;18.206;2023-05-11T00:16:03;100110.05;;;9.27;40.89
34103;BME280;20381;54.498;18.206;2023-05-11T00:18:30;100105.80;;;9.24;40.67
34103;BME280;20381;54.498;18.206;2023-05-11T00:20:56;100104.11;;;9.23;40.65
34103;BME280;20381;54.498;18.206;2023-05-11T00:23:22;100106.83;;;9.20;41.01
34103;BME280;20381;54.498;18.206;2023-05-11T00:25:49;100106.37;;;9.21;40.97
34103;BME280;20381;54.498;18.206;2023-05-11T00:28:15;100100.04;;;9.16;41.03
34103;BME280;20381;54.498;18.206;2023-05-11T00:30:41;100099.16;;;9.15;41.01
34103;BME280;20381;54.498;18.206;2023-05-11T00:33:09;100092.38;;;9.11;41.04
34103;BME280;20381;54.498;18.206;2023-05-11T00:35:38;100096.78;;;9.09;41.23
34103;BME280;20381;54.498;18.206;2023-05-11T00:38:04;100096.89;;;9.06;41.34
34103;BME280;20381;54.498;18.206;2023-05-11T00:40:31;100094.28;;;9.06;41.33
34103;BME280;20381;54.498;18.206;2023-05-11T00:42:57;100098.76;;;9.03;41.19
34103;BME280;20381;54.498;18.206;2023-05-11T00:45:26;100097.91;;;9.02;41.71
34103;BME280;20381;54.498;18.206;2023-05-11T00:47:53;100089.19;;;9.03;41.38
34103;BME280;20381;54.498;18.206;2023-05-11T00:50:21;100096.08;;;9.04;41.52
34103;BME280;20381;54.498;18.206;2023-05-11T00:52:47;100095.20;;;9.05;42.35
34103;BME280;20381;54.498;18.206;2023-05-11T00:55:15;100097.80;;;9.05;41.69
34103;BME280;20381;54.498;18.206;2023-05-11T00:57:43;100092.17;;;9.04;41.59
34103;BME280;20381;54.498;18.206;2023-05-11T01:00:11;100094.39;;;9.03;41.72
34103;BME280;20381;54.498;18.206;2023-05-11T01:02:38;100093.48;;;9.04;41.93
34103;BME280;20381;54.498;18.206;2023-05-11T01:05:06;100096.19;;;9.01;41.90
34103;BME280;20381;54.498;18.206;2023-05-11T01:07:47;100093.66;;;9.00;42.13
34103;BME280;20381;54.498;18.206;2023-05-11T01:10:14;100092.81;;;8.99;42.03
34103;BME280;20381;54.498;18.206;2023-05-11T01:15:33;100096.30;;;8.98;42.32
34103;BME280;20381;54.498;18.206;2023-05-11T01:20:43;100094.89;;;9.01;42.02
34103;BME280;20381;54.498;18.206;2023-05-11T01:31:33;100094.02;;;8.89;42.48
34103;BME280;20381;54.498;18.206;2023-05-11T01:34:07;100092.88;;;8.84;42.86
34103;BME280;20381;54.498;18.206;2023-05-11T01:36:38;100091.22;;;8.82;42.40
34103;BME280;20381;54.498;18.206;2023-05-11T01:39:07;100101.63;;;8.82;42.45
34103;BME280;20381;54.498;18.206;2023-05-11T01:41:36;100100.79;;;8.81;42.55
34103;BME280;20381;54.498;18.206;2023-05-11T01:44:06;100105.15;;;8.81;42.48
34103;BME280;20381;54.498;18.206;2023-05-11T01:46:33;100103.81;;;8.82;42.79
34103;BME280;20381;54.498;18.206;2023-05-11T01:49:02;100102.16;;;8.80;42.80
34103;BME280;20381;54.498;18.206;2023-05-11T01:51:36;100111.37;;;8.77;43.05
34103;BME280;20381;54.498;18.206;2023-05-11T01:53:59;100110.85;;;8.79;42.82
34103;BME280;20381;54.498;18.206;2023-05-11T01:56:29;100107.47;;;8.77;42.84
34103;BME280;20381;54.498;18.206;2023-05-11T01:58:56;100109.16;;;8.78;42.93
34103;BME280;20381;54.498;18.206;2023-05-11T02:01:24;100118.28;;;8.78;43.28
34103;BME280;20381;54.498;18.206;2023-05-11T02:03:53;100111.87;;;8.74;42.94
34103;BME280;20381;54.498;18.206;2023-05-11T02:06:21;100111.17;;;8.69;42.78
34103;BME280;20381;54.498;18.206;2023-05-11T02:08:50;100125.03;;;8.70;43.04
34103;BME280;20381;54.498;18.206;2023-05-11T02:11:19;100119.08;;;8.66;43.33
34103;BME280;20381;54.498;18.206;2023-05-11T02:13:48;100126.89;;;8.66;43.54
34103;BME280;20381;54.498;18.206;2023-05-11T02:16:17;100124.29;;;8.66;43.20
34103;BME280;20381;54.498;18.206;2023-05-11T02:18:45;100122.56;;;8.65;43.26
34103;BME280;20381;54.498;18.206;2023-05-11T02:21:14;100129.18;;;8.62;43.38
34103;BME280;20381;54.498;18.206;2023-05-11T02:23:42;100131.39;;;8.61;44.06
34103;BME280;20381;54.498;18.206;2023-05-11T02:26:12;100126.19;;;8.61;43.77
34103;BME280;20381;54.498;18.206;2023-05-11T02:28:40;100126.19;;;8.61;43.33
34103;BME280;20381;54.498;18.206;2023-05-11T02:31:08;100131.88;;;8.59;43.68
34103;BME280;20381;54.498;18.206;2023-05-11T02:33:38;100118.09;;;8.57;43.42
34103;BME280;20381;54.498;18.206;2023-05-11T02:36:06;100124.67;;;8.54;43.66
34103;BME280;20381;54.498;18.206;2023-05-11T02:38:33;100121.68;;;8.53;43.46
34103;BME280;20381;54.498;18.206;2023-05-11T02:41:03;100123.89;;;8.52;43.50
34103;BME280;20381;54.498;18.206;2023-05-11T02:43:38;100127.48;;;8.48;43.79
34103;BME280;20381;54.498;18.206;2023-05-11T02:46:04;100121.98;;;8.44;43.56
34103;BME280;20381;54.498;18.206;2023-05-11T02:48:37;100131.09;;;8.44;44.08
34103;BME280;20381;54.498;18.206;2023-05-11T02:51:06;100129.38;;;8.43;43.62
34103;BME280;20381;54.498;18.206;2023-05-11T02:53:34;100136.30;;;8.44;43.72
34103;BME280;20381;54.498;18.206;2023-05-11T02:56:02;100133.80;;;8.41;43.96
34103;BME280;20381;54.498;18.206;2023-05-11T02:58:29;100130.38;;;8.37;43.79
34103;BME280;20381;54.498;18.206;2023-05-11T03:00:55;100140.05;;;8.34;44.08
34103;BME280;20381;54.498;18.206;2023-05-11T03:03:22;100141.77;;;8.35;44.00
34103;BME280;20381;54.498;18.206;2023-05-11T03:05:49;100134.84;;;8.34;44.15
34103;BME280;20381;54.498;18.206;2023-05-11T03:08:16;100135.40;;;8.30;44.30
34103;BME280;20381;54.498;18.206;2023-05-11T03:10:42;100135.95;;;8.26;44.01
34103;BME280;20381;54.498;18.206;2023-05-11T03:13:09;100137.35;;;8.23;44.19
34103;BME280;20381;54.498;18.206;2023-05-11T03:15:37;100129.94;;;8.24;44.18
34103;BME280;20381;54.498;18.206;2023-05-11T03:18:04;100138.66;;;8.23;44.34
34103;BME280;20381;54.498;18.206;2023-05-11T03:20:33;100139.43;;;8.25;44.42
34103;BME280;20381;54.498;18.206;2023-05-11T03:23:01;100141.94;;;8.28;44.58
34103;BME280;20381;54.498;18.206;2023-05-11T03:25:27;100139.33;;;8.28;44.47
34103;BME280;20381;54.498;18.206;2023-05-11T03:27:56;100140.95;;;8.33;44.64
34103;BME280;20381;54.498;18.206;2023-05-11T03:30:24;100142.65;;;8.34;44.36
34103;BME280;20381;54.498;18.206;2023-05-11T03:32:51;100139.03;;;8.39;44.36
34103;BME280;20381;54.498;18.206;2023-05-11T03:35:18;100152.01;;;8.41;44.88
34103;BME280;20381;54.498;18.206;2023-05-11T03:37:46;100150.61;;;8.44;44.83
34103;BME280;20381;54.498;18.206;2023-05-11T03:40:14;100150.13;;;8.46;44.71
34103;BME280;20381;54.498;18.206;2023-05-11T03:42:44;100155.26;;;8.47;44.94
34103;BME280;20381;54.498;18.206;2023-05-11T03:45:13;100149.00;;;8.53;44.73
34103;BME280;20381;54.498;18.206;2023-05-11T03:47:42;100147.11;;;8.58;44.65
34103;BME280;20381;54.498;18.206;2023-05-11T03:50:10;100151.30;;;8.62;44.66
34103;BME280;20381;54.498;18.206;2023-05-11T03:52:37;100158.94;;;8.68;44.72
34103;BME280;20381;54.498;18.206;2023-05-11T03:55:07;100151.38;;;8.74;45.00
34103;BME280;20381;54.498;18.206;2023-05-11T03:57:34;100151.11;;;8.82;44.73
34103;BME280;20381;54.498;18.206;2023-05-11T04:00:05;100149.63;;;8.88;44.58
34103;BME280;20381;54.498;18.206;2023-05-11T04:02:29;100151.10;;;8.95;44.45
34103;BME280;20381;54.498;18.206;2023-05-11T04:04:58;100147.41;;;9.02;44.41
34103;BME280;20381;54.498;18.206;2023-05-11T04:07:25;100153.28;;;9.07;44.45
34103;BME280;20381;54.498;18.206;2023-05-11T04:09:54;100153.87;;;9.15;44.53
34103;BME280;20381;54.498;18.206;2023-05-11T04:12:20;100156.22;;;9.23;44.23
34103;BME280;20381;54.498;18.206;2023-05-11T04:14:47;100154.20;;;9.31;44.34
34103;BME280;20381;54.498;18.206;2023-05-11T04:17:13;100154.82;;;9.38;44.24
34103;BME280;20381;54.498;18.206;2023-05-11T04:19:39;100153.71;;;9.45;44.08
34103;BME280;20381;54.498;18.206;2023-05-11T04:22:06;100156.09;;;9.51;43.94
34103;BME280;20381;54.498;18.206;2023-05-11T04:24:35;100151.45;;;9.59;43.80
34103;BME280;20381;54.498;18.206;2023-05-11T04:27:01;100157.24;;;9.68;43.73
34103;BME280;20381;54.498;18.206;2023-05-11T04:29:28;100155.20;;;9.76;43.37
34103;BME280;20381;54.498;18.206;2023-05-11T04:31:55;100150.56;;;9.84;43.57
34103;BME280;20381;54.498;18.206;2023-05-11T04:34:22;100164.97;;;9.94;43.58
34103;BME280;20381;54.498;18.206;2023-05-11T04:36:49;100161.58;;;10.02;43.22
34103;BME280;20381;54.498;18.206;2023-05-11T04:39:16;100150.02;;;10.09;43.19
34103;BME280;20381;54.498;18.206;2023-05-11T04:41:43;100164.93;;;10.18;43.00
34103;BME280;20381;54.498;18.206;2023-05-11T04:44:09;100157.66;;;10.26;42.99
34103;BME280;20381;54.498;18.206;2023-05-11T04:46:36;100165.95;;;10.37;42.74
34103;BME280;20381;54.498;18.206;2023-05-11T04:49:05;100163.89;;;10.45;42.87
34103;BME280;20381;54.498;18.206;2023-05-11T04:51:32;100173.03;;;10.56;42.53
34103;BME280;20381;54.498;18.206;2023-05-11T04:53:58;100162.42;;;10.60;42.51
34103;BME280;20381;54.498;18.206;2023-05-11T04:56:24;100173.36;;;10.70;42.25
34103;BME280;20381;54.498;18.206;2023-05-11T04:58:51;100175.63;;;10.78;42.20
34103;BME280;20381;54.498;18.206;2023-05-11T05:01:17;100175.63;;;10.78;42.20
34103;BME280;20381;54.498;18.206;2023-05-11T05:03:50;100171.80;;;10.86;42.28
34103;BME280;20381;54.498;18.206;2023-05-11T05:06:14;100181.01;;;10.95;41.80
34103;BME280;20381;54.498;18.206;2023-05-11T05:08:41;100180.31;;;11.02;41.85
34103;BME280;20381;54.498;18.206;2023-05-11T05:11:07;100185.66;;;11.09;42.00
34103;BME280;20381;54.498;18.206;2023-05-11T05:13:34;100166.61;;;11.07;42.03
34103;BME280;20381;54.498;18.206;2023-05-11T05:16:01;100176.15;;;11.18;41.77
34103;BME280;20381;54.498;18.206;2023-05-11T05:18:27;100190.92;;;11.29;41.17
34103;BME280;20381;54.498;18.206;2023-05-11T05:20:54;100191.16;;;11.33;41.54
34103;BME280;20381;54.498;18.206;2023-05-11T05:23:20;100179.13;;;11.39;41.30
34103;BME280;20381;54.498;18.206;2023-05-11T05:25:47;100173.90;;;11.39;40.79
34103;BME280;20381;54.498;18.206;2023-05-11T05:28:13;100187.91;;;11.49;40.70
34103;BME280;20381;54.498;18.206;2023-05-11T05:30:39;100187.35;;;11.51;40.47
34103;BME280;20381;54.498;18.206;2023-05-11T05:33:06;100196.27;;;11.57;40.60
34103;BME280;20381;54.498;18.206;2023-05-11T05:35:32;100191.28;;;11.61;40.78
34103;BME280;20381;54.498;18.206;2023-05-11T05:37:58;100189.78;;;11.65;40.53
34103;BME280;20381;54.498;18.206;2023-05-11T05:40:24;100200.42;;;11.71;40.59
34103;BME280;20381;54.498;18.206;2023-05-11T05:42:51;100193.47;;;11.80;39.30
34103;BME280;20381;54.498;18.206;2023-05-11T05:45:17;100207.88;;;11.91;39.63
34103;BME280;20381;54.498;18.206;2023-05-11T05:47:44;100197.65;;;11.95;39.35
34103;BME280;20381;54.498;18.206;2023-05-11T05:50:10;100203.91;;;12.01;39.69
34103;BME280;20381;54.498;18.206;2023-05-11T05:52:36;100200.34;;;12.12;39.63
34103;BME280;20381;54.498;18.206;2023-05-11T05:55:04;100199.47;;;12.22;39.88
34103;BME280;20381;54.498;18.206;2023-05-11T05:57:30;100203.75;;;12.33;40.01
34103;BME280;20381;54.498;18.206;2023-05-11T05:59:57;100211.86;;;12.46;38.43
34103;BME280;20381;54.498;18.206;2023-05-11T06:02:23;100201.23;;;12.49;39.60
34103;BME280;20381;54.498;18.206;2023-05-11T06:04:50;100205.91;;;12.61;39.47
34103;BME280;20381;54.498;18.206;2023-05-11T06:07:16;100200.84;;;12.75;39.64
34103;BME280;20381;54.498;18.206;2023-05-11T06:09:42;100209.25;;;12.91;38.92
34103;BME280;20381;54.498;18.206;2023-05-11T06:12:09;100214.59;;;12.98;38.40
34103;BME280;20381;54.498;18.206;2023-05-11T06:14:35;100225.08;;;12.98;37.61
34103;BME280;20381;54.498;18.206;2023-05-11T06:17:01;100209.36;;;13.07;38.74
34103;BME280;20381;54.498;18.206;2023-05-11T06:19:27;100202.77;;;13.26;38.73
34103;BME280;20381;54.498;18.206;2023-05-11T06:21:54;100211.16;;;13.41;38.92
34103;BME280;20381;54.498;18.206;2023-05-11T06:24:24;100223.50;;;13.56;38.22
34103;BME280;20381;54.498;18.206;2023-05-11T06:26:48;100220.92;;;13.63;37.43
34103;BME280;20381;54.498;18.206;2023-05-11T06:29:14;100215.80;;;13.78;38.39
34103;BME280;20381;54.498;18.206;2023-05-11T06:31:41;100224.36;;;13.90;37.51
34103;BME280;20381;54.498;18.206;2023-05-11T06:34:07;100203.46;;;14.04;38.04
34103;BME280;20381;54.498;18.206;2023-05-11T06:36:34;100217.89;;;14.29;38.18
34103;BME280;20381;54.498;18.206;2023-05-11T06:39:00;100226.14;;;14.54;36.07
34103;BME280;20381;54.498;18.206;2023-05-11T06:41:27;100211.81;;;14.83;37.14
34103;BME280;20381;54.498;18.206;2023-05-11T06:43:53;100213.27;;;15.19;36.11
34103;BME280;20381;54.498;18.206;2023-05-11T06:46:20;100206.39;;;15.61;37.14
34103;BME280;20381;54.498;18.206;2023-05-11T06:48:46;100212.07;;;16.05;36.75
34103;BME280;20381;54.498;18.206;2023-05-11T06:51:13;100213.86;;;16.53;36.47
34103;BME280;20381;54.498;18.206;2023-05-11T06:53:39;100211.70;;;16.87;35.72
34103;BME280;20381;54.498;18.206;2023-05-11T06:56:06;100213.06;;;17.32;35.70
34103;BME280;20381;54.498;18.206;2023-05-11T06:58:33;100204.56;;;17.80;36.12
34103;BME280;20381;54.498;18.206;2023-05-11T07:00:59;100224.59;;;18.21;34.06
34103;BME280;20381;54.498;18.206;2023-05-11T07:03:27;100209.89;;;18.53;34.53
34103;BME280;20381;54.498;18.206;2023-05-11T07:05:53;100214.48;;;18.99;34.47
34103;BME280;20381;54.498;18.206;2023-05-11T07:08:19;100210.27;;;19.43;31.60
34103;BME280;20381;54.498;18.206;2023-05-11T07:10:45;100207.34;;;19.87;32.42
34103;BME280;20381;54.498;18.206;2023-05-11T07:13:12;100200.08;;;20.34;32.41
34103;BME280;20381;54.498;18.206;2023-05-11T07:15:39;100209.76;;;21.06;32.88
34103;BME280;20381;54.498;18.206;2023-05-11T07:18:05;100215.19;;;21.57;30.89
34103;BME280;20381;54.498;18.206;2023-05-11T07:20:32;100213.77;;;21.84;30.78
34103;BME280;20381;54.498;18.206;2023-05-11T07:23:00;100216.11;;;22.39;29.27
34103;BME280;20381;54.498;18.206;2023-05-11T07:25:26;100212.17;;;22.87;29.60
34103;BME280;20381;54.498;18.206;2023-05-11T07:27:53;100209.94;;;23.31;29.47
34103;BME280;20381;54.498;18.206;2023-05-11T07:30:19;100203.34;;;23.78;29.25
34103;BME280;20381;54.498;18.206;2023-05-11T07:32:45;100207.33;;;24.61;28.54
34103;BME280;20381;54.498;18.206;2023-05-11T07:35:12;100213.33;;;24.95;28.70
34103;BME280;20381;54.498;18.206;2023-05-11T07:37:40;100221.16;;;25.10;26.52
34103;BME280;20381;54.498;18.206;2023-05-11T07:40:08;100223.47;;;25.09;26.09
34103;BME280;20381;54.498;18.206;2023-05-11T07:42:35;100209.90;;;25.20;26.71
34103;BME280;20381;54.498;18.206;2023-05-11T07:45:01;100212.76;;;25.45;24.84
34103;BME280;20381;54.498;18.206;2023-05-11T07:47:28;100216.60;;;25.68;26.50
34103;BME280;20381;54.498;18.206;2023-05-11T07:49:54;100220.91;;;26.22;23.83
34103;BME280;20381;54.498;18.206;2023-05-11T07:52:20;100221.38;;;26.55;24.36
34103;BME280;20381;54.498;18.206;2023-05-11T07:54:47;100214.68;;;26.72;24.97
34103;BME280;20381;54.498;18.206;2023-05-11T07:57:13;100210.37;;;26.95;23.52
34103;BME280;20381;54.498;18.206;2023-05-11T07:59:39;100212.05;;;27.54;24.45
34103;BME280;20381;54.498;18.206;2023-05-11T08:02:05;100214.02;;;27.68;24.01
34103;BME280;20381;54.498;18.206;2023-05-11T08:04:33;100215.16;;;27.86;21.66
34103;BME280;20381;54.498;18.206;2023-05-11T08:07:01;100220.96;;;28.10;19.87
34103;BME280;20381;54.498;18.206;2023-05-11T08:09:28;100210.47;;;27.84;22.29
34103;BME280;20381;54.498;18.206;2023-05-11T08:11:55;100213.06;;;27.40;21.40
34103;BME280;20381;54.498;18.206;2023-05-11T08:14:22;100201.80;;;27.57;21.94
34103;BME280;20381;54.498;18.206;2023-05-11T08:16:49;100222.27;;;28.14;19.99
34103;BME280;20381;54.498;18.206;2023-05-11T08:19:15;100202.13;;;28.18;21.17
34103;BME280;20381;54.498;18.206;2023-05-11T08:21:41;100221.02;;;27.89;19.45
34103;BME280;20381;54.498;18.206;2023-05-11T08:24:09;100238.86;;;27.41;19.45
34103;BME280;20381;54.498;18.206;2023-05-11T08:26:35;100229.12;;;26.95;19.39
34103;BME280;20381;54.498;18.206;2023-05-11T08:29:01;100225.73;;;26.69;19.30
34103;BME280;20381;54.498;18.206;2023-05-11T08:31:29;100210.68;;;26.64;20.39
34103;BME280;20381;54.498;18.206;2023-05-11T08:33:56;100226.94;;;26.91;18.76
34103;BME280;20381;54.498;18.206;2023-05-11T08:36:22;100231.44;;;26.70;19.78
34103;BME280;20381;54.498;18.206;2023-05-11T08:38:48;100222.40;;;26.67;19.79
34103;BME280;20381;54.498;18.206;2023-05-11T08:41:14;100213.72;;;27.10;20.47
34103;BME280;20381;54.498;18.206;2023-05-11T08:43:41;100213.04;;;27.57;20.33
34103;BME280;20381;54.498;18.206;2023-05-11T08:46:10;100217.25;;;28.11;18.93
34103;BME280;20381;54.498;18.206;2023-05-11T08:48:36;100206.56;;;28.69;19.51
34103;BME280;20381;54.498;18.206;2023-05-11T08:51:03;100231.47;;;29.13;19.24
34103;BME280;20381;54.498;18.206;2023-05-11T08:53:30;100207.70;;;28.48;18.31
34103;BME280;20381;54.498;18.206;2023-05-11T08:55:57;100215.62;;;28.02;18.73
34103;BME280;20381;54.498;18.206;2023-05-11T08:58:26;100222.88;;;28.28;18.60
34103;BME280;20381;54.498;18.206;2023-05-11T09:00:53;100198.86;;;28.66;18.63
34103;BME280;20381;54.498;18.206;2023-05-11T09:03:19;100194.45;;;29.53;19.54
34103;BME280;20381;54.498;18.206;2023-05-11T09:05:46;100207.53;;;30.16;16.99
34103;BME280;20381;54.498;18.206;2023-05-11T09:08:16;100200.59;;;30.06;17.88
34103;BME280;20381;54.498;18.206;2023-05-11T09:10:43;100198.12;;;30.41;18.21
34103;BME280;20381;54.498;18.206;2023-05-11T09:13:10;100183.68;;;30.96;18.15
34103;BME280;20381;54.498;18.206;2023-05-11T09:15:36;100195.23;;;31.39;18.07
34103;BME280;20381;54.498;18.206;2023-05-11T09:18:03;100200.89;;;31.44;17.51
34103;BME280;20381;54.498;18.206;2023-05-11T09:20:30;100195.12;;;31.65;15.61
34103;BME280;20381;54.498;18.206;2023-05-11T09:22:57;100196.94;;;31.93;17.15
34103;BME280;20381;54.498;18.206;2023-05-11T09:25:25;100201.70;;;31.91;16.54
34103;BME280;20381;54.498;18.206;2023-05-11T09:27:51;100201.66;;;31.28;15.04
34103;BME280;20381;54.498;18.206;2023-05-11T09:30:22;100186.37;;;30.85;16.13
34103;BME280;20381;54.498;18.206;2023-05-11T09:38:02;100205.20;;;30.64;15.28
34103;BME280;20381;54.498;18.206;2023-05-11T09:40:31;100206.27;;;29.82;15.64
34103;BME280;20381;54.498;18.206;2023-05-11T09:42:58;100184.70;;;30.11;15.70
34103;BME280;20381;54.498;18.206;2023-05-11T09:50:50;100171.73;;;30.94;15.38
34103;BME280;20381;54.498;18.206;2023-05-11T09:53:17;100181.64;;;30.87;15.37
34103;BME280;20381;54.498;18.206;2023-05-11T09:55:51;100171.06;;;31.14;14.68
34103;BME280;20381;54.498;18.206;2023-05-11T09:58:17;100171.59;;;31.59;14.88
34103;BME280;20381;54.498;18.206;2023-05-11T10:00:50;100164.67;;;31.84;15.14
34103;BME280;20381;54.498;18.206;2023-05-11T10:03:19;100187.20;;;31.63;13.95
34103;BME280;20381;54.498;18.206;2023-05-11T10:05:57;100169.45;;;31.48;15.17
34103;BME280;20381;54.498;18.206;2023-05-11T10:08:29;100174.45;;;31.85;13.86
34103;BME280;20381;54.498;18.206;2023-05-11T10:10:56;100161.59;;;31.70;14.03
34103;BME280;20381;54.498;18.206;2023-05-11T10:13:23;100160.81;;;31.76;14.38
34103;BME280;20381;54.498;18.206;2023-05-11T10:15:50;100158.38;;;32.12;14.38
34103;BME280;20381;54.498;18.206;2023-05-11T10:18:17;100155.64;;;32.87;14.84
34103;BME280;20381;54.498;18.206;2023-05-11T10:20:44;100155.84;;;33.58;13.38
34103;BME280;20381;54.498;18.206;2023-05-11T10:23:11;100163.41;;;33.65;13.20
34103;BME280;20381;54.498;18.206;2023-05-11T10:25:39;100160.00;;;32.88;13.76
34103;BME280;20381;54.498;18.206;2023-05-11T10:28:06;100159.14;;;32.54;13.42
34103;BME280;20381;54.498;18.206;2023-05-11T10:30:34;100165.89;;;32.17;13.21
34103;BME280;20381;54.498;18.206;2023-05-11T10:33:02;100159.07;;;32.34;13.51
34103;BME280;20381;54.498;18.206;2023-05-11T10:35:29;100152.84;;;33.31;13.66
34103;BME280;20381;54.498;18.206;2023-05-11T10:37:59;100165.41;;;32.88;12.91
34103;BME280;20381;54.498;18.206;2023-05-11T10:40:27;100153.06;;;32.39;13.48
34103;BME280;20381;54.498;18.206;2023-05-11T10:43:10;100148.69;;;32.88;13.49
34103;BME280;20381;54.498;18.206;2023-05-11T11:02:03;100148.80;;;33.04;13.23
34103;BME280;20381;54.498;18.206;2023-05-11T11:07:15;100151.87;;;33.90;12.71
34103;BME280;20381;54.498;18.206;2023-05-11T11:09:59;100148.26;;;32.98;12.36
34103;BME280;20381;54.498;18.206;2023-05-11T11:12:34;100168.29;;;31.57;13.01
34103;BME280;20381;54.498;18.206;2023-05-11T11:15:02;100144.78;;;30.73;13.07
34103;BME280;20381;54.498;18.206;2023-05-11T11:17:34;100166.08;;;30.68;13.67
34103;BME280;20381;54.498;18.206;2023-05-11T11:20:06;100147.39;;;30.55;13.65
34103;BME280;20381;54.498;18.206;2023-05-11T11:22:43;100147.91;;;30.66;13.89
34103;BME280;20381;54.498;18.206;2023-05-11T11:25:15;100144.83;;;30.69;13.81
34103;BME280;20381;54.498;18.206;2023-05-11T11:30:24;100158.19;;;29.79;14.16
34103;BME280;20381;54.498;18.206;2023-05-11T11:38:17;100151.57;;;29.37;14.21
34103;BME280;20381;54.498;18.206;2023-05-11T11:40:47;100147.30;;;29.57;14.61
34103;BME280;20381;54.498;18.206;2023-05-11T11:43:22;100143.33;;;29.53;14.56
34103;BME280;20381;54.498;18.206;2023-05-11T11:45:58;100149.73;;;29.82;13.78
34103;BME280;20381;54.498;18.206;2023-05-11T11:51:02;100154.45;;;28.20;14.98
34103;BME280;20381;54.498;18.206;2023-05-11T12:01:22;100190.92;;;26.18;16.31
34103;BME280;20381;54.498;18.206;2023-05-11T12:04:08;100173.77;;;25.60;15.93
34103;BME280;20381;54.498;18.206;2023-05-11T12:06:30;100172.72;;;24.51;17.50
34103;BME280;20381;54.498;18.206;2023-05-11T12:08:59;100149.65;;;23.54;16.67
34103;BME280;20381;54.498;18.206;2023-05-11T12:11:29;100167.00;;;22.72;17.86
34103;BME280;20381;54.498;18.206;2023-05-11T12:13:58;100152.42;;;22.06;17.64
34103;BME280;20381;54.498;18.206;2023-05-11T12:16:27;100170.38;;;21.74;17.89
34103;BME280;20381;54.498;18.206;2023-05-11T12:18:57;100168.95;;;21.12;19.36
34103;BME280;20381;54.498;18.206;2023-05-11T12:21:27;100164.70;;;20.68;19.48
34103;BME280;20381;54.498;18.206;2023-05-11T12:23:55;100165.95;;;20.35;19.96
34103;BME280;20381;54.498;18.206;2023-05-11T12:26:25;100167.59;;;19.99;20.64
34103;BME280;20381;54.498;18.206;2023-05-11T12:29:07;100167.49;;;19.72;19.97
34103;BME280;20381;54.498;18.206;2023-05-11T12:31:48;100170.69;;;19.53;20.05
34103;BME280;20381;54.498;18.206;2023-05-11T12:34:02;100186.20;;;19.35;21.14
34103;BME280;20381;54.498;18.206;2023-05-11T12:36:33;100178.65;;;19.07;22.27
34103;BME280;20381;54.498;18.206;2023-05-11T12:39:03;100202.42;;;18.95;23.95
34103;BME280;20381;54.498;18.206;2023-05-11T12:41:29;100177.13;;;18.80;21.20
34103;BME280;20381;54.498;18.206;2023-05-11T12:43:57;100182.17;;;18.65;22.66
34103;BME280;20381;54.498;18.206;2023-05-11T12:46:30;100184.61;;;18.44;22.68
34103;BME280;20381;54.498;18.206;2023-05-11T12:48:53;100177.38;;;18.22;21.56
34103;BME280;20381;54.498;18.206;2023-05-11T12:51:51;100174.08;;;18.13;22.42
34103;BME280;20381;54.498;18.206;2023-05-11T12:54:45;100174.92;;;18.13;22.19
34103;BME280;20381;54.498;18.206;2023-05-11T12:57:23;100182.15;;;17.98;22.85
34103;BME280;20381;54.498;18.206;2023-05-11T13:00:11;100170.31;;;17.91;23.53
34103;BME280;20381;54.498;18.206;2023-05-11T13:02:53;100169.13;;;17.95;23.90
34103;BME280;20381;54.498;18.206;2023-05-11T13:05:25;100161.33;;;17.94;23.76
34103;BME280;20381;54.498;18.206;2023-05-11T13:08:03;100165.77;;;17.93;23.33
34103;BME280;20381;54.498;18.206;2023-05-11T13:10:31;100157.90;;;17.86;24.74
34103;BME280;20381;54.498;18.206;2023-05-11T13:12:57;100160.71;;;17.90;24.27
34103;BME280;20381;54.498;18.206;2023-05-11T13:15:24;100151.30;;;17.86;24.01
34103;BME280;20381;54.498;18.206;2023-05-11T13:17:58;100159.80;;;17.84;23.93
34103;BME280;20381;54.498;18.206;2023-05-11T13:20:34;100158.60;;;17.82;23.92
34103;BME280;20381;54.498;18.206;2023-05-11T13:23:09;100165.83;;;17.86;23.95
34103;BME280;20381;54.498;18.206;2023-05-11T13:28:16;100155.41;;;17.77;24.43
34103;BME280;20381;54.498;18.206;2023-05-11T13:30:43;100157.47;;;17.66;24.87
34103;BME280;20381;54.498;18.206;2023-05-11T13:33:09;100151.61;;;17.68;24.61
34103;BME280;20381;54.498;18.206;2023-05-11T13:35:40;100159.31;;;17.72;24.55
34103;BME280;20381;54.498;18.206;2023-05-11T13:38:10;100137.62;;;17.74;24.85
34103;BME280;20381;54.498;18.206;2023-05-11T13:40:42;100140.04;;;17.77;25.20
34103;BME280;20381;54.498;18.206;2023-05-11T13:43:08;100150.25;;;17.76;25.01
34103;BME280;20381;54.498;18.206;2023-05-11T13:45:35;100141.67;;;17.72;24.80
34103;BME280;20381;54.498;18.206;2023-05-11T13:48:01;100148.18;;;17.74;25.95
34103;BME280;20381;54.498;18.206;2023-05-11T13:50:31;100133.73;;;17.79;24.97
34103;BME280;20381;54.498;18.206;2023-05-11T13:52:58;100130.62;;;17.73;25.16